createdAt,value
2018-08-21T00:01:23.366Z,90.60
2018-08-21T00:03:56.117Z,94.97
2018-08-21T00:06:28.719Z,101.53
2018-08-21T00:09:01.612Z,101.17
2018-08-21T00:11:49.903Z,100.77
2018-08-21T00:14:24.201Z,106.50
2018-08-21T00:16:57.544Z,103.33
2018-08-21T00:19:31.121Z,112.07
2018-08-21T00:22:04.373Z,107.50
2018-08-21T00:24:37.908Z,109.10
2018-08-21T00:27:10.531Z,120.40
2018-08-21T00:29:43.846Z,118.87
2018-08-21T00:32:16.787Z,119.30
2018-08-21T00:34:50.798Z,125.13
2018-08-21T00:37:23.815Z,120.97
2018-08-21T00:39:56.821Z,120.23
2018-08-21T00:42:29.037Z,122.67
2018-08-21T00:45:06.691Z,115.40
2018-08-21T00:47:39.096Z,124.80
2018-08-21T00:50:11.823Z,119.03
2018-08-21T00:52:44.007Z,122.87
2018-08-21T00:55:16.482Z,120.50
2018-08-21T00:57:48.806Z,124.77
2018-08-21T01:00:21.011Z,121.57
2018-08-21T01:02:53.342Z,114.97
2018-08-21T01:05:26.597Z,124.80
2018-08-21T01:07:59.258Z,120.23
2018-08-21T01:10:31.753Z,119.00
2018-08-21T01:13:03.647Z,122.40
2018-08-21T01:15:36.526Z,123.03
2018-08-21T01:18:09.265Z,128.87
2018-08-21T01:20:42.311Z,122.33
2018-08-21T01:23:15.069Z,121.37
2018-08-21T01:25:47.174Z,123.33
2018-08-21T01:28:19.732Z,123.60
2018-08-21T01:30:52.213Z,121.07
2018-08-21T01:33:24.768Z,116.20
2018-08-21T01:35:56.754Z,125.63
2018-08-21T01:38:29.613Z,122.93
2018-08-21T01:41:02.060Z,122.00
2018-08-21T01:43:34.555Z,123.83
2018-08-21T01:46:07.301Z,126.70
2018-08-21T01:48:39.588Z,126.87
2018-08-21T01:51:12.542Z,123.30
2018-08-21T01:54:17.159Z,121.17
2018-08-21T01:56:49.098Z,123.77
2018-08-21T01:59:22.761Z,123.83
2018-08-21T02:01:55.157Z,126.23
2018-08-21T02:04:28.047Z,119.17
2018-08-21T02:07:00.358Z,123.00
2018-08-21T02:09:32.761Z,128.30
2018-08-21T02:12:05.101Z,129.20
2018-08-21T02:14:37.520Z,124.47
2018-08-21T02:17:09.794Z,119.50
2018-08-21T02:19:42.578Z,120.97
2018-08-21T02:22:15.176Z,118.30
2018-08-21T02:24:47.767Z,124.50
2018-08-21T02:27:20.138Z,128.57
2018-08-21T02:29:52.264Z,124.47
2018-08-21T02:32:24.474Z,128.80
2018-08-21T02:34:56.844Z,129.87
2018-08-21T02:37:29.186Z,123.37
2018-08-21T02:40:15.043Z,126.20
2018-08-21T02:42:51.440Z,124.93
2018-08-21T02:45:24.311Z,123.10
2018-08-21T02:47:56.565Z,130.53
2018-08-21T02:50:29.010Z,130.33
2018-08-21T02:53:01.321Z,137.27
2018-08-21T02:55:33.860Z,126.50
2018-08-21T02:58:06.457Z,122.30
2018-08-21T03:00:38.734Z,125.13
2018-08-21T03:03:11.747Z,132.40
2018-08-21T03:05:44.350Z,129.50
2018-08-21T03:08:16.537Z,131.63
2018-08-21T03:10:49.003Z,127.77
2018-08-21T03:13:21.781Z,126.30
2018-08-21T03:15:54.195Z,123.77
2018-08-21T03:18:26.545Z,136.20
2018-08-21T03:20:58.698Z,135.67
2018-08-21T03:23:30.887Z,133.80
2018-08-21T03:26:03.335Z,137.20
2018-08-21T03:28:35.867Z,132.50
2018-08-21T03:31:08.308Z,130.60
2018-08-21T03:33:40.637Z,134.50
2018-08-21T03:36:13.539Z,141.57
2018-08-21T03:38:45.924Z,137.87
2018-08-21T03:41:18.426Z,131.30
2018-08-21T03:43:51.109Z,137.67
2018-08-21T03:46:23.718Z,139.23
2018-08-21T03:48:56.580Z,141.67
2018-08-21T03:51:29.549Z,133.40
2018-08-21T03:54:01.707Z,139.00
2018-08-21T03:56:34.777Z,132.00
2018-08-21T03:59:08.007Z,136.37
2018-08-21T04:01:41.517Z,133.97
2018-08-21T04:04:14.102Z,143.87
2018-08-21T04:06:47.265Z,160.47
2018-08-21T04:09:19.369Z,131.27
2018-08-21T04:11:52.376Z,134.70
2018-08-21T04:14:25.178Z,135.43
2018-08-21T04:16:57.985Z,143.87
2018-08-21T04:19:30.685Z,139.83
2018-08-21T04:22:17.556Z,153.07
2018-08-21T04:24:50.906Z,136.83
2018-08-21T04:27:22.879Z,144.27
2018-08-21T04:29:54.858Z,148.00
2018-08-21T04:32:28.615Z,154.10
2018-08-21T04:35:01.465Z,149.80
2018-08-21T04:37:34.490Z,146.13
2018-08-21T04:40:07.126Z,138.53
2018-08-21T04:42:39.782Z,145.13
2018-08-21T04:45:11.934Z,149.37
2018-08-21T04:47:44.423Z,150.47
2018-08-21T04:50:16.402Z,146.80
2018-08-21T04:52:49.465Z,144.57
2018-08-21T04:55:21.963Z,145.83
2018-08-21T04:57:54.310Z,148.77
2018-08-21T05:00:30.481Z,142.27
2018-08-21T05:03:03.226Z,148.43
2018-08-21T05:05:36.188Z,139.40
2018-08-21T05:08:08.636Z,152.57
2018-08-21T05:10:40.903Z,141.20
2018-08-21T05:13:13.409Z,147.50
2018-08-21T05:15:45.739Z,143.80
2018-08-21T05:18:18.291Z,144.53
2018-08-21T05:20:50.623Z,149.60
2018-08-21T05:23:23.571Z,144.53
2018-08-21T05:25:58.156Z,140.87
2018-08-21T05:28:31.913Z,137.40
2018-08-21T05:31:07.688Z,142.47
2018-08-21T05:33:39.885Z,143.43
2018-08-21T05:36:12.656Z,136.03
2018-08-21T05:38:45.449Z,130.20
2018-08-21T05:41:17.797Z,123.50
2018-08-21T05:43:50.574Z,130.00
2018-08-21T05:46:23.318Z,118.10
2018-08-21T05:48:55.386Z,113.33
2018-08-21T05:51:28.057Z,102.47
2018-08-21T05:54:00.559Z,112.77
2018-08-21T05:56:32.905Z,119.57
2018-08-21T05:59:07.117Z,105.30
2018-08-21T06:01:41.747Z,105.10
2018-08-21T06:04:14.241Z,106.03
2018-08-21T06:06:47.065Z,103.50
2018-08-21T06:09:19.395Z,99.27
2018-08-21T06:11:51.661Z,104.63
2018-08-21T06:14:24.004Z,107.17
2018-08-21T06:16:56.706Z,102.30
2018-08-21T06:19:29.466Z,100.07
2018-08-21T06:22:01.984Z,99.10
2018-08-21T06:24:34.481Z,91.57
2018-08-21T06:27:07.199Z,97.47
2018-08-21T06:29:39.678Z,104.43
2018-08-21T06:32:12.323Z,98.83
2018-08-21T06:34:44.666Z,96.00
2018-08-21T06:37:17.703Z,93.30
2018-08-21T06:39:49.968Z,100.10
2018-08-21T06:42:22.695Z,94.47
2018-08-21T06:44:57.950Z,98.93
2018-08-21T06:47:30.817Z,106.50
2018-08-21T06:50:03.042Z,97.80
2018-08-21T06:52:35.409Z,102.70
2018-08-21T06:55:08.105Z,95.17
2018-08-21T06:57:40.445Z,111.30
2018-08-21T07:00:14.568Z,105.80
2018-08-21T07:02:47.455Z,106.70
2018-08-21T07:05:20.105Z,108.07
2018-08-21T07:07:52.694Z,118.13
2018-08-21T07:10:25.209Z,120.30
2018-08-21T07:12:57.390Z,129.60
2018-08-21T07:15:30.134Z,130.20
2018-08-21T07:18:02.290Z,141.23
2018-08-21T07:20:35.439Z,134.83
2018-08-21T07:23:08.317Z,145.43
2018-08-21T07:25:45.203Z,146.97
2018-08-21T07:28:22.020Z,142.07
2018-08-21T07:30:55.269Z,144.33
2018-08-21T07:33:31.802Z,145.47
2018-08-21T07:36:04.265Z,150.47
2018-08-21T07:38:48.613Z,148.60
2018-08-21T07:41:21.697Z,149.67
2018-08-21T07:43:54.104Z,152.33
2018-08-21T07:46:26.482Z,143.63
2018-08-21T07:48:58.630Z,140.67
2018-08-21T07:51:30.599Z,155.47
2018-08-21T07:54:02.545Z,150.33
2018-08-21T07:56:34.810Z,142.93
2018-08-21T07:59:12.754Z,147.53
2018-08-21T08:01:49.425Z,143.07
2018-08-21T08:04:32.661Z,152.40
2018-08-21T08:07:10.151Z,144.60
2018-08-21T08:09:42.393Z,158.73
2018-08-21T08:12:14.890Z,145.93
2018-08-21T08:14:47.130Z,152.83
2018-08-21T08:17:19.564Z,155.37
2018-08-21T08:19:51.642Z,152.93
2018-08-21T08:22:25.875Z,158.53
2018-08-21T08:24:58.245Z,149.67
2018-08-21T08:27:30.912Z,158.30
2018-08-21T08:30:02.847Z,160.27
2018-08-21T08:32:35.329Z,153.07
2018-08-21T08:35:13.708Z,148.80
2018-08-21T08:37:47.247Z,158.17
2018-08-21T08:40:29.902Z,153.27
2018-08-21T08:43:08.651Z,160.53
2018-08-21T08:45:47.899Z,148.10
2018-08-21T08:48:21.763Z,149.13
2018-08-21T08:50:53.982Z,155.07
2018-08-21T08:53:26.397Z,168.77
2018-08-21T08:55:59.482Z,151.83
2018-08-21T08:58:31.839Z,153.27
2018-08-21T09:01:09.438Z,162.90
2018-08-21T09:03:48.813Z,159.00
2018-08-21T09:06:25.576Z,158.00
2018-08-21T09:08:57.964Z,148.90
2018-08-21T09:11:51.681Z,158.53
2018-08-21T09:14:29.333Z,162.53
2018-08-21T09:17:18.941Z,155.00
2018-08-21T09:20:01.974Z,146.43
2018-08-21T09:22:34.640Z,156.23
2018-08-21T09:25:07.135Z,152.73
2018-08-21T09:27:41.553Z,154.87
2018-08-21T09:30:24.121Z,148.67
2018-08-21T09:32:58.247Z,157.30
2018-08-21T09:35:30.838Z,156.87
2018-08-21T09:38:03.365Z,153.47
2018-08-21T09:40:35.922Z,148.13
2018-08-21T09:43:08.806Z,160.80
2018-08-21T09:45:40.742Z,161.00
2018-08-21T09:48:12.931Z,161.13
2018-08-21T09:50:45.767Z,152.63
2018-08-21T09:53:17.812Z,151.80
2018-08-21T09:55:49.868Z,162.37
2018-08-21T09:58:21.915Z,160.70
2018-08-21T10:00:58.729Z,158.23
2018-08-21T10:03:36.010Z,156.27
2018-08-21T10:06:09.368Z,157.10
2018-08-21T10:08:54.642Z,157.27
2018-08-21T10:11:28.179Z,163.33
2018-08-21T10:14:06.752Z,156.97
2018-08-21T10:16:39.024Z,159.73
2018-08-21T10:19:11.715Z,156.27
2018-08-21T10:21:43.774Z,161.13
2018-08-21T10:24:16.135Z,158.83
2018-08-21T10:26:48.398Z,156.73
2018-08-21T10:29:20.065Z,140.83
2018-08-21T10:31:52.359Z,155.67
2018-08-21T10:34:24.532Z,156.00
2018-08-21T10:36:56.720Z,152.00
2018-08-21T10:39:28.782Z,156.07
2018-08-21T10:42:01.449Z,164.40
2018-08-21T10:44:33.891Z,159.77
2018-08-21T10:47:06.214Z,154.70
2018-08-21T10:49:38.202Z,160.30
2018-08-21T10:52:10.495Z,153.37
2018-08-21T10:54:42.337Z,159.57
2018-08-21T10:57:14.860Z,155.50
2018-08-21T10:59:47.144Z,161.03
2018-08-21T11:02:33.725Z,161.00
2018-08-21T11:05:07.283Z,166.97
2018-08-21T11:08:05.927Z,158.17
2018-08-21T11:10:43.522Z,170.87
2018-08-21T11:13:15.662Z,176.03
2018-08-21T11:15:48.288Z,169.07
2018-08-21T11:18:20.710Z,168.83
2018-08-21T11:20:53.356Z,169.83
2018-08-21T11:23:25.544Z,180.70
2018-08-21T11:25:57.912Z,161.13
2018-08-21T11:28:31.550Z,165.33
2018-08-21T11:31:03.936Z,168.70
2018-08-21T11:33:36.524Z,162.40
2018-08-21T11:36:08.857Z,170.23
2018-08-21T11:38:41.012Z,167.13
2018-08-21T11:41:13.530Z,167.83
2018-08-21T11:43:45.856Z,168.70
2018-08-21T11:46:17.981Z,175.77
2018-08-21T11:48:50.800Z,170.97
2018-08-21T11:51:23.653Z,170.93
2018-08-21T11:53:55.910Z,176.93
2018-08-21T11:56:28.388Z,173.77
2018-08-21T11:59:01.528Z,171.57
2018-08-21T12:01:33.938Z,169.50
2018-08-21T12:04:06.530Z,171.23
2018-08-21T12:06:39.066Z,177.50
2018-08-21T12:09:12.219Z,174.87
2018-08-21T12:11:44.823Z,176.63
2018-08-21T12:14:17.217Z,178.57
2018-08-21T12:16:49.568Z,170.63
2018-08-21T12:19:22.061Z,177.80
2018-08-21T12:21:54.324Z,168.40
2018-08-21T12:24:26.608Z,167.33
2018-08-21T12:26:58.926Z,171.83
2018-08-21T12:29:31.224Z,176.90
2018-08-21T12:32:04.225Z,173.20
2018-08-21T12:34:36.604Z,175.60
2018-08-21T12:37:08.936Z,174.30
2018-08-21T12:39:41.113Z,181.53
2018-08-21T12:42:13.279Z,181.00
2018-08-21T12:44:45.539Z,176.23
2018-08-21T12:47:17.680Z,175.17
2018-08-21T12:49:50.062Z,180.93
2018-08-21T12:52:22.645Z,176.67
2018-08-21T12:54:55.142Z,176.03
2018-08-21T12:57:27.344Z,178.87
2018-08-21T12:59:59.970Z,170.07
2018-08-21T13:02:32.673Z,177.63
2018-08-21T13:05:05.067Z,171.83
2018-08-21T13:07:37.457Z,170.23
2018-08-21T13:10:10.146Z,167.20
2018-08-21T13:12:42.562Z,174.73
2018-08-21T13:15:14.907Z,167.23
2018-08-21T13:17:47.133Z,167.80
2018-08-21T13:20:19.265Z,166.10
2018-08-21T13:22:51.705Z,174.97
2018-08-21T13:25:24.302Z,165.83
2018-08-21T13:27:56.710Z,175.77
2018-08-21T13:30:28.973Z,160.30
2018-08-21T13:33:01.365Z,168.17
2018-08-21T13:35:33.783Z,160.30
2018-08-21T13:38:06.084Z,162.43
2018-08-21T13:40:38.708Z,162.23
2018-08-21T13:43:11.403Z,161.23
2018-08-21T13:45:43.813Z,167.07
2018-08-21T13:48:16.044Z,169.17
2018-08-21T13:50:48.593Z,161.30
2018-08-21T13:53:21.176Z,158.87
2018-08-21T13:55:54.868Z,176.40
2018-08-21T13:58:27.415Z,148.90
2018-08-21T14:00:59.825Z,138.10
2018-08-21T14:03:32.445Z,139.33
2018-08-21T14:06:04.811Z,136.20
2018-08-21T14:08:37.588Z,134.07
2018-08-21T14:11:10.004Z,112.57
2018-08-21T14:13:43.023Z,118.93
2018-08-21T14:16:15.590Z,113.67
2018-08-21T14:18:48.240Z,119.90
2018-08-21T14:21:20.761Z,130.03
2018-08-21T14:23:53.402Z,122.70
2018-08-21T14:26:25.820Z,129.57
2018-08-21T14:28:57.992Z,128.23
2018-08-21T14:31:30.387Z,130.60
2018-08-21T14:34:02.550Z,136.67
2018-08-21T14:36:34.718Z,127.40
2018-08-21T14:39:09.188Z,121.27
2018-08-21T14:41:41.816Z,80.60
2018-08-21T14:44:14.142Z,81.30
2018-08-21T14:46:46.506Z,74.20
2018-08-21T14:49:18.711Z,76.43
2018-08-21T14:51:51.291Z,70.30
2018-08-21T14:54:23.719Z,74.43
2018-08-21T14:56:56.376Z,67.17
2018-08-21T14:59:28.574Z,67.87
2018-08-21T15:02:00.586Z,63.03
2018-08-21T15:04:33.040Z,66.07
2018-08-21T15:07:05.165Z,68.30
2018-08-21T15:09:37.380Z,69.83
2018-08-21T15:12:09.774Z,62.03
2018-08-21T15:17:35.262Z,65.93
2018-08-21T15:20:07.526Z,67.43
2018-08-21T15:22:40.152Z,64.07
2018-08-21T15:25:12.683Z,70.90
2018-08-21T15:27:45.248Z,74.60
2018-08-21T15:30:17.567Z,66.00
2018-08-21T15:32:50.019Z,76.07
2018-08-21T15:35:22.961Z,71.43
2018-08-21T15:37:55.329Z,65.97
2018-08-21T15:40:27.760Z,70.93
2018-08-21T15:43:00.101Z,67.30
2018-08-21T15:45:33.322Z,69.57
2018-08-21T15:48:05.802Z,67.83
2018-08-21T15:50:38.147Z,65.13
2018-08-21T15:53:10.761Z,70.00
2018-08-21T15:55:43.022Z,70.17
2018-08-21T15:58:15.829Z,72.83
2018-08-21T16:00:48.611Z,71.73
2018-08-21T16:03:20.971Z,78.37
2018-08-21T16:05:53.448Z,74.97
2018-08-21T16:08:25.775Z,68.70
2018-08-21T16:10:57.948Z,78.37
2018-08-21T16:13:30.607Z,70.00
2018-08-21T16:16:02.933Z,76.50
2018-08-21T16:18:35.590Z,72.40
2018-08-21T16:21:07.866Z,78.40
2018-08-21T16:23:40.186Z,76.33
2018-08-21T16:26:12.582Z,71.93
2018-08-21T16:28:44.971Z,82.00
2018-08-21T16:31:17.297Z,77.90
2018-08-21T16:33:49.536Z,82.87
2018-08-21T16:36:22.133Z,75.63
2018-08-21T16:38:54.460Z,81.00
2018-08-21T16:41:27.022Z,82.00
2018-08-21T16:43:59.220Z,82.80
2018-08-21T16:46:31.866Z,75.13
2018-08-21T16:49:04.376Z,71.37
2018-08-21T16:51:37.180Z,73.30
2018-08-21T16:54:09.047Z,71.20
2018-08-21T16:56:41.422Z,69.53
2018-08-21T16:59:13.693Z,72.77
2018-08-21T17:01:45.997Z,68.40
2018-08-21T17:04:18.259Z,76.60
2018-08-21T17:06:50.851Z,80.77
2018-08-21T17:09:23.133Z,71.47
2018-08-21T17:11:55.500Z,67.73
2018-08-21T17:14:27.949Z,64.50
2018-08-21T17:17:00.041Z,63.20
2018-08-21T17:19:32.637Z,60.87
2018-08-21T17:22:05.007Z,61.80
2018-08-21T17:24:37.283Z,66.73
2018-08-21T17:27:08.639Z,61.43
2018-08-21T17:29:41.544Z,61.80
2018-08-21T17:32:13.715Z,66.13
2018-08-21T17:34:46.256Z,61.03
2018-08-21T17:37:18.741Z,63.43
2018-08-21T17:39:51.220Z,62.83
2018-08-21T17:42:23.546Z,59.10
2018-08-21T17:44:55.816Z,61.20
2018-08-21T17:47:28.011Z,58.37
2018-08-21T17:50:00.573Z,57.07
2018-08-21T17:52:32.931Z,57.10
2018-08-21T17:55:05.549Z,61.83
2018-08-21T17:57:37.907Z,59.00
2018-08-21T18:00:11.781Z,64.87
2018-08-21T18:02:44.353Z,60.10
2018-08-21T18:05:16.829Z,62.93
2018-08-21T18:07:49.479Z,58.00
2018-08-21T18:10:21.801Z,58.20
2018-08-21T18:12:54.463Z,61.83
2018-08-21T18:15:26.959Z,63.10
2018-08-21T18:17:59.831Z,55.37
2018-08-21T18:20:32.095Z,59.77
2018-08-21T18:23:04.629Z,61.40
2018-08-21T18:25:37.520Z,59.63
2018-08-21T18:28:11.113Z,57.90
2018-08-21T18:30:43.629Z,61.00
2018-08-21T18:33:15.946Z,57.23
2018-08-21T18:35:48.596Z,57.47
2018-08-21T18:38:20.692Z,60.57
2018-08-21T18:40:53.386Z,59.10
2018-08-21T18:43:25.903Z,58.93
2018-08-21T18:45:58.339Z,63.30
2018-08-21T18:48:30.408Z,54.30
2018-08-21T18:51:02.856Z,56.40
2018-08-21T18:53:35.276Z,56.30
2018-08-21T18:56:07.918Z,59.87
2018-08-21T18:58:40.241Z,58.87
2018-08-21T19:01:12.744Z,65.07
2018-08-21T19:03:45.260Z,57.07
2018-08-21T19:06:18.818Z,58.60
2018-08-21T19:08:50.977Z,54.03
2018-08-21T19:11:23.286Z,51.93
2018-08-21T19:13:55.555Z,56.53
2018-08-21T19:16:28.065Z,59.87
2018-08-21T19:19:00.524Z,54.10
2018-08-21T19:21:33.061Z,54.30
2018-08-21T19:24:05.629Z,54.20
2018-08-21T19:26:38.760Z,53.70
2018-08-21T19:29:11.246Z,51.33
2018-08-21T19:31:43.837Z,49.83
2018-08-21T19:34:16.324Z,52.30
2018-08-21T19:36:48.386Z,54.73
2018-08-21T19:39:20.806Z,54.93
2018-08-21T19:41:53.346Z,50.40
2018-08-21T19:44:25.540Z,48.73
2018-08-21T19:46:57.789Z,47.50
2018-08-21T19:49:30.206Z,49.30
2018-08-21T19:52:02.723Z,52.07
2018-08-21T19:54:35.119Z,49.20
2018-08-21T19:57:07.738Z,50.33
2018-08-21T19:59:39.809Z,46.93
2018-08-21T20:02:12.408Z,46.90
2018-08-21T20:04:45.065Z,50.47
2018-08-21T20:07:17.673Z,48.47
2018-08-21T20:09:50.078Z,48.67
2018-08-21T20:12:22.040Z,48.97
2018-08-21T20:14:54.585Z,50.07
2018-08-21T20:17:26.732Z,49.20
2018-08-21T20:19:59.129Z,49.27
2018-08-21T20:22:31.547Z,49.73
2018-08-21T20:25:03.710Z,50.50
2018-08-21T20:27:36.601Z,47.03
2018-08-21T20:30:09.180Z,47.73
2018-08-21T20:32:41.818Z,51.70
2018-08-21T20:35:15.371Z,48.00
2018-08-21T20:37:47.552Z,49.17
2018-08-21T20:40:20.703Z,47.20
2018-08-21T20:42:52.976Z,50.07
2018-08-21T20:45:25.504Z,46.10
2018-08-21T20:47:57.682Z,48.73
2018-08-21T20:50:30.203Z,47.80
2018-08-21T20:53:02.765Z,51.47
2018-08-21T20:55:35.059Z,51.50
2018-08-21T20:58:07.929Z,46.27
2018-08-21T21:00:40.963Z,46.53
2018-08-21T21:03:13.385Z,55.13
2018-08-21T21:05:45.684Z,47.23
2018-08-21T21:08:18.391Z,50.33
2018-08-21T21:10:50.777Z,49.10
2018-08-21T21:13:32.150Z,50.93
2018-08-21T21:16:13.761Z,53.67
2018-08-21T21:18:55.110Z,49.07
2018-08-21T21:21:36.523Z,49.60
2018-08-21T21:24:17.052Z,52.97
2018-08-21T21:26:49.511Z,51.27
2018-08-21T21:29:21.782Z,53.10
2018-08-21T21:31:54.092Z,51.60
2018-08-21T21:34:26.704Z,50.50
2018-08-21T21:36:59.013Z,53.20
2018-08-21T21:39:31.258Z,53.73
2018-08-21T21:42:03.407Z,54.67
2018-08-21T21:44:35.790Z,54.40
2018-08-21T21:47:07.989Z,54.17
2018-08-21T21:49:39.855Z,54.63
2018-08-21T21:52:11.854Z,56.33
2018-08-21T21:54:44.544Z,53.40
2018-08-21T21:57:16.864Z,60.77
2018-08-21T21:59:49.300Z,57.27
2018-08-21T22:02:22.102Z,55.97
2018-08-21T22:04:54.300Z,55.23
2018-08-21T22:07:26.677Z,58.47
2018-08-21T22:09:59.172Z,57.43
2018-08-21T22:12:32.072Z,57.40
2018-08-21T22:15:04.323Z,55.10
2018-08-21T22:17:36.679Z,56.27
2018-08-21T22:20:09.061Z,52.03
2018-08-21T22:22:41.052Z,59.03
2018-08-21T22:25:12.958Z,58.40
2018-08-21T22:27:46.058Z,61.33
2018-08-21T22:30:18.548Z,59.80
2018-08-21T22:32:50.961Z,63.97
2018-08-21T22:35:23.323Z,67.73
2018-08-21T22:37:55.957Z,64.37
2018-08-21T22:40:28.695Z,70.63
2018-08-21T22:43:00.790Z,68.00
2018-08-21T22:45:32.541Z,68.07
2018-08-21T22:48:04.933Z,69.33
2018-08-21T22:50:37.704Z,62.87
2018-08-21T22:53:09.980Z,65.60
2018-08-21T22:55:43.554Z,66.77
2018-08-21T22:58:15.914Z,66.97
2018-08-21T23:00:50.125Z,69.10
2018-08-21T23:03:23.468Z,69.93
2018-08-21T23:05:55.901Z,63.57
2018-08-21T23:08:28.264Z,70.50
2018-08-21T23:11:00.676Z,66.37
2018-08-21T23:13:33.570Z,64.37
2018-08-21T23:16:06.724Z,69.17
2018-08-21T23:18:39.103Z,66.93
2018-08-21T23:21:11.675Z,71.83
2018-08-21T23:23:44.003Z,66.00
2018-08-21T23:26:16.117Z,70.40
2018-08-21T23:28:48.486Z,69.33
2018-08-21T23:31:20.762Z,69.87
2018-08-21T23:33:53.363Z,72.77
2018-08-21T23:36:25.935Z,68.57
2018-08-21T23:38:58.113Z,66.37
2018-08-21T23:41:30.525Z,72.73
2018-08-21T23:44:02.336Z,69.17
2018-08-21T23:46:34.532Z,71.40
2018-08-21T23:49:07.026Z,71.00
2018-08-21T23:51:39.408Z,66.60
2018-08-21T23:54:11.657Z,68.13
2018-08-21T23:56:43.864Z,66.70
2018-08-21T23:59:16.295Z,67.03
